sensor_id;sensor_type;location;lat;lon;timestamp;pressure;altitude;pressure_sealevel;temperature;humidity
68456;BME280;55437;55.046;38.838;2023-11-21T00:01:58;99258.25;;;-3.42;60.96
68456;BME280;55437;55.046;38.838;2023-11-21T00:04:24;99253.34;;;-3.33;60.69
68456;BME280;55437;55.046;38.838;2023-11-21T00:06:51;99249.28;;;-3.23;60.98
68456;BME280;55437;55.046;38.838;2023-11-21T00:09:17;99244.34;;;-3.19;60.64
68456;BME280;55437;55.046;38.838;2023-11-21T00:11:44;99245.91;;;-3.26;60.03
68456;BME280;55437;55.046;38.838;2023-11-21T00:14:11;99245.97;;;-3.22;60.37
68456;BME280;55437;55.046;38.838;2023-11-21T00:16:37;99249.50;;;-3.08;60.33
68456;BME280;55437;55.046;38.838;2023-11-21T00:19:02;99241.03;;;-3.16;60.06
68456;BME280;55437;55.046;38.838;2023-11-21T00:21:28;99246.59;;;-3.36;60.34
68456;BME280;55437;55.046;38.838;2023-11-21T00:23:54;99251.66;;;-3.34;60.56
68456;BME280;55437;55.046;38.838;2023-11-21T00:26:20;99252.34;;;-3.44;60.39
68456;BME280;55437;55.046;38.838;2023-11-21T00:28:56;99240.56;;;-3.51;60.56
68456;BME280;55437;55.046;38.838;2023-11-21T00:31:22;99247.22;;;-3.52;60.54
68456;BME280;55437;55.046;38.838;2023-11-21T00:33:48;99249.69;;;-3.55;60.28
68456;BME280;55437;55.046;38.838;2023-11-21T00:36:14;99242.03;;;-3.64;60.07
68456;BME280;55437;55.046;38.838;2023-11-21T00:38:40;99250.03;;;-3.88;60.41
68456;BME280;55437;55.046;38.838;2023-11-21T00:41:07;99245.84;;;-3.87;60.42
68456;BME280;55437;55.046;38.838;2023-11-21T00:43:33;99241.75;;;-3.81;60.09
68456;BME280;55437;55.046;38.838;2023-11-21T00:46:05;99251.78;;;-3.81;60.31
68456;BME280;55437;55.046;38.838;2023-11-21T00:48:33;99258.47;;;-3.81;60.62
68456;BME280;55437;55.046;38.838;2023-11-21T00:50:59;99264.06;;;-3.96;60.14
68456;BME280;55437;55.046;38.838;2023-11-21T00:53:25;99254.75;;;-4.05;60.63
68456;BME280;55437;55.046;38.838;2023-11-21T00:55:52;99242.09;;;-4.12;60.40
68456;BME280;55437;55.046;38.838;2023-11-21T00:58:24;99245.28;;;-4.21;60.79
68456;BME280;55437;55.046;38.838;2023-11-21T01:00:53;99244.47;;;-4.20;60.76
68456;BME280;55437;55.046;38.838;2023-11-21T01:03:19;99241.88;;;-4.24;60.78
68456;BME280;55437;55.046;38.838;2023-11-21T01:05:45;99241.91;;;-4.23;60.63
68456;BME280;55437;55.046;38.838;2023-11-21T01:08:11;99240.13;;;-4.28;60.86
68456;BME280;55437;55.046;38.838;2023-11-21T01:10:37;99235.13;;;-4.28;60.99
68456;BME280;55437;55.046;38.838;2023-11-21T01:13:03;99229.13;;;-4.38;60.93
68456;BME280;55437;55.046;38.838;2023-11-21T01:15:33;99231.69;;;-4.33;61.19
68456;BME280;55437;55.046;38.838;2023-11-21T01:17:59;99230.63;;;-4.46;61.27
68456;BME280;55437;55.046;38.838;2023-11-21T01:20:25;99224.34;;;-4.69;62.03
68456;BME280;55437;55.046;38.838;2023-11-21T01:22:51;99232.22;;;-4.93;62.11
68456;BME280;55437;55.046;38.838;2023-11-21T01:25:20;99221.38;;;-4.95;62.78
68456;BME280;55437;55.046;38.838;2023-11-21T01:27:48;99228.84;;;-4.97;62.74
68456;BME280;55437;55.046;38.838;2023-11-21T01:30:14;99232.56;;;-4.77;62.54
68456;BME280;55437;55.046;38.838;2023-11-21T01:32:41;99227.63;;;-4.74;62.21
68456;BME280;55437;55.046;38.838;2023-11-21T01:35:09;99220.66;;;-4.88;62.60
68456;BME280;55437;55.046;38.838;2023-11-21T01:37:39;99229.75;;;-4.92;62.56
68456;BME280;55437;55.046;38.838;2023-11-21T01:40:05;99241.19;;;-5.04;62.96
68456;BME280;55437;55.046;38.838;2023-11-21T01:42:39;99241.63;;;-4.83;63.00
68456;BME280;55437;55.046;38.838;2023-11-21T01:45:06;99240.13;;;-4.75;62.43
68456;BME280;55437;55.046;38.838;2023-11-21T01:47:33;99255.13;;;-4.75;62.38
68456;BME280;55437;55.046;38.838;2023-11-21T01:50:02;99260.97;;;-4.76;62.39
68456;BME280;55437;55.046;38.838;2023-11-21T01:52:30;99273.59;;;-4.72;62.58
68456;BME280;55437;55.046;38.838;2023-11-21T01:54:58;99271.94;;;-4.69;62.28
68456;BME280;55437;55.046;38.838;2023-11-21T01:57:25;99277.06;;;-4.63;62.17
68456;BME280;55437;55.046;38.838;2023-11-21T01:59:54;99274.06;;;-4.47;62.16
68456;BME280;55437;55.046;38.838;2023-11-21T02:02:20;99281.72;;;-4.38;62.07
68456;BME280;55437;55.046;38.838;2023-11-21T02:04:45;99275.97;;;-4.32;61.80
68456;BME280;55437;55.046;38.838;2023-11-21T02:07:12;99278.50;;;-4.31;61.31
68456;BME280;55437;55.046;38.838;2023-11-21T02:09:38;99275.16;;;-4.31;61.53
68456;BME280;55437;55.046;38.838;2023-11-21T02:12:04;99280.91;;;-4.37;61.63
68456;BME280;55437;55.046;38.838;2023-11-21T02:14:31;99288.41;;;-4.39;61.80
68456;BME280;55437;55.046;38.838;2023-11-21T02:16:58;99288.59;;;-4.28;61.45
68456;BME280;55437;55.046;38.838;2023-11-21T02:19:24;99289.53;;;-4.23;61.26
68456;BME280;55437;55.046;38.838;2023-11-21T02:21:59;99290.31;;;-4.25;61.58
68456;BME280;55437;55.046;38.838;2023-11-21T02:24:30;99291.19;;;-4.22;61.15
68456;BME280;55437;55.046;38.838;2023-11-21T02:26:56;99298.00;;;-4.16;61.25
68456;BME280;55437;55.046;38.838;2023-11-21T02:29:22;99287.22;;;-4.12;60.99
68456;BME280;55437;55.046;38.838;2023-11-21T02:31:54;99284.72;;;-4.12;61.00
68456;BME280;55437;55.046;38.838;2023-11-21T02:34:22;99282.22;;;-4.12;60.76
68456;BME280;55437;55.046;38.838;2023-11-21T02:36:48;99287.94;;;-4.18;60.84
68456;BME280;55437;55.046;38.838;2023-11-21T02:39:17;99276.00;;;-4.31;61.62
68456;BME280;55437;55.046;38.838;2023-11-21T02:41:44;99266.88;;;-4.27;61.25
68456;BME280;55437;55.046;38.838;2023-11-21T02:44:10;99265.47;;;-4.13;61.06
68456;BME280;55437;55.046;38.838;2023-11-21T02:46:37;99266.28;;;-4.14;60.92
68456;BME280;55437;55.046;38.838;2023-11-21T02:49:06;99268.06;;;-4.07;61.00
68456;BME280;55437;55.046;38.838;2023-11-21T02:51:35;99263.06;;;-4.07;61.05
68456;BME280;55437;55.046;38.838;2023-11-21T02:54:00;99273.94;;;-4.07;60.58
68456;BME280;55437;55.046;38.838;2023-11-21T02:56:28;99282.44;;;-3.97;60.67
68456;BME280;55437;55.046;38.838;2023-11-21T02:58:59;99295.00;;;-3.95;60.38
68456;BME280;55437;55.046;38.838;2023-11-21T03:01:26;99300.88;;;-3.95;60.70
68456;BME280;55437;55.046;38.838;2023-11-21T03:03:53;99288.50;;;-3.84;60.52
68456;BME280;55437;55.046;38.838;2023-11-21T03:06:21;99297.16;;;-3.67;60.50
68456;BME280;55437;55.046;38.838;2023-11-21T03:08:47;99288.75;;;-3.71;59.78
68456;BME280;55437;55.046;38.838;2023-11-21T03:11:13;99298.56;;;-3.83;60.28
68456;BME280;55437;55.046;38.838;2023-11-21T03:13:40;99299.25;;;-3.93;60.40
68456;BME280;55437;55.046;38.838;2023-11-21T03:16:09;99305.00;;;-3.98;60.71
68456;BME280;55437;55.046;38.838;2023-11-21T03:18:39;99314.91;;;-4.05;60.52
68456;BME280;55437;55.046;38.838;2023-11-21T03:21:06;99323.19;;;-4.09;60.91
68456;BME280;55437;55.046;38.838;2023-11-21T03:23:35;99330.88;;;-4.01;61.00
68456;BME280;55437;55.046;38.838;2023-11-21T03:26:03;99333.03;;;-4.19;60.90
68456;BME280;55437;55.046;38.838;2023-11-21T03:28:30;99339.78;;;-4.15;60.83
68456;BME280;55437;55.046;38.838;2023-11-21T03:30:57;99348.22;;;-4.12;60.59
68456;BME280;55437;55.046;38.838;2023-11-21T03:33:24;99345.84;;;-4.04;60.80
68456;BME280;55437;55.046;38.838;2023-11-21T03:35:51;99349.53;;;-3.84;60.49
68456;BME280;55437;55.046;38.838;2023-11-21T03:38:19;99354.88;;;-3.67;60.33
68456;BME280;55437;55.046;38.838;2023-11-21T03:40:46;99350.31;;;-3.89;60.17
68456;BME280;55437;55.046;38.838;2023-11-21T03:43:13;99348.28;;;-4.07;60.46
68456;BME280;55437;55.046;38.838;2023-11-21T03:45:40;99341.63;;;-4.07;60.44
68456;BME280;55437;55.046;38.838;2023-11-21T03:48:07;99344.09;;;-4.08;60.39
68456;BME280;55437;55.046;38.838;2023-11-21T03:50:35;99352.44;;;-4.09;60.60
68456;BME280;55437;55.046;38.838;2023-11-21T03:53:01;99349.84;;;-4.14;60.65
68456;BME280;55437;55.046;38.838;2023-11-21T03:55:27;99346.53;;;-4.13;61.04
68456;BME280;55437;55.046;38.838;2023-11-21T03:57:53;99349.31;;;-3.96;60.35
68456;BME280;55437;55.046;38.838;2023-11-21T04:00:19;99357.84;;;-3.88;60.24
68456;BME280;55437;55.046;38.838;2023-11-21T04:02:47;99342.56;;;-4.02;60.02
68456;BME280;55437;55.046;38.838;2023-11-21T04:05:13;99337.66;;;-3.94;60.50
68456;BME280;55437;55.046;38.838;2023-11-21T04:07:39;99343.19;;;-4.13;60.90
68456;BME280;55437;55.046;38.838;2023-11-21T04:10:09;99348.97;;;-4.16;61.02
68456;BME280;55437;55.046;38.838;2023-11-21T04:12:35;99341.47;;;-4.16;60.74
68456;BME280;55437;55.046;38.838;2023-11-21T04:15:03;99334.88;;;-4.11;60.55
68456;BME280;55437;55.046;38.838;2023-11-21T04:17:31;99343.94;;;-4.17;60.47
68456;BME280;55437;55.046;38.838;2023-11-21T04:19:56;99341.31;;;-4.22;60.63
68456;BME280;55437;55.046;38.838;2023-11-21T04:22:43;99342.16;;;-4.23;60.84
68456;BME280;55437;55.046;38.838;2023-11-21T04:25:10;99329.78;;;-4.15;60.70
68456;BME280;55437;55.046;38.838;2023-11-21T04:27:41;99333.94;;;-4.16;60.81
68456;BME280;55437;55.046;38.838;2023-11-21T04:30:12;99326.38;;;-4.17;60.26
68456;BME280;55437;55.046;38.838;2023-11-21T04:32:41;99321.09;;;-4.31;60.88
68456;BME280;55437;55.046;38.838;2023-11-21T04:35:08;99326.94;;;-4.32;60.69
68456;BME280;55437;55.046;38.838;2023-11-21T04:37:35;99338.00;;;-4.21;60.57
68456;BME280;55437;55.046;38.838;2023-11-21T04:40:01;99341.25;;;-4.26;60.24
68456;BME280;55437;55.046;38.838;2023-11-21T04:42:31;99355.50;;;-4.24;60.81
68456;BME280;55437;55.046;38.838;2023-11-21T04:44:57;99364.75;;;-4.20;60.40
68456;BME280;55437;55.046;38.838;2023-11-21T04:47:23;99363.88;;;-4.23;60.41
68456;BME280;55437;55.046;38.838;2023-11-21T04:49:49;99359.50;;;-4.32;60.62
68456;BME280;55437;55.046;38.838;2023-11-21T04:52:15;99365.34;;;-4.33;60.63
68456;BME280;55437;55.046;38.838;2023-11-21T04:54:41;99360.44;;;-4.28;60.58
68456;BME280;55437;55.046;38.838;2023-11-21T04:57:08;99359.72;;;-4.21;60.29
68456;BME280;55437;55.046;38.838;2023-11-21T04:59:35;99354.03;;;-4.14;60.29
68456;BME280;55437;55.046;38.838;2023-11-21T05:02:01;99364.28;;;-4.02;59.73
68456;BME280;55437;55.046;38.838;2023-11-21T05:04:27;99355.75;;;-4.10;59.59
68456;BME280;55437;55.046;38.838;2023-11-21T05:06:53;99360.81;;;-4.07;60.17
68456;BME280;55437;55.046;38.838;2023-11-21T05:09:19;99356.72;;;-4.04;59.86
68456;BME280;55437;55.046;38.838;2023-11-21T05:11:45;99366.91;;;-3.94;59.56
68456;BME280;55437;55.046;38.838;2023-11-21T05:14:12;99366.13;;;-3.92;59.49
68456;BME280;55437;55.046;38.838;2023-11-21T05:16:39;99370.38;;;-3.89;59.32
68456;BME280;55437;55.046;38.838;2023-11-21T05:19:04;99369.28;;;-4.02;59.38
68456;BME280;55437;55.046;38.838;2023-11-21T05:21:32;99368.53;;;-3.96;59.54
68456;BME280;55437;55.046;38.838;2023-11-21T05:23:59;99377.91;;;-3.86;59.52
68456;BME280;55437;55.046;38.838;2023-11-21T05:26:25;99385.53;;;-3.82;59.27
68456;BME280;55437;55.046;38.838;2023-11-21T05:28:51;99388.72;;;-3.90;59.01
68456;BME280;55437;55.046;38.838;2023-11-21T05:31:17;99394.25;;;-4.07;59.21
68456;BME280;55437;55.046;38.838;2023-11-21T05:33:44;99396.09;;;-3.98;59.50
68456;BME280;55437;55.046;38.838;2023-11-21T05:36:10;99396.69;;;-4.10;59.37
68456;BME280;55437;55.046;38.838;2023-11-21T05:38:36;99402.59;;;-4.08;59.51
68456;BME280;55437;55.046;38.838;2023-11-21T05:41:02;99396.97;;;-3.96;59.14
68456;BME280;55437;55.046;38.838;2023-11-21T05:43:30;99388.84;;;-3.83;58.56
68456;BME280;55437;55.046;38.838;2023-11-21T05:45:59;99403.84;;;-3.87;58.53
68456;BME280;55437;55.046;38.838;2023-11-21T05:48:25;99404.72;;;-3.84;58.30
68456;BME280;55437;55.046;38.838;2023-11-21T05:50:53;99397.38;;;-3.73;58.47
68456;BME280;55437;55.046;38.838;2023-11-21T05:53:19;99397.38;;;-3.73;58.22
68456;BME280;55437;55.046;38.838;2023-11-21T05:55:45;99403.00;;;-3.86;57.68
68456;BME280;55437;55.046;38.838;2023-11-21T05:58:11;99416.28;;;-3.92;58.01
68456;BME280;55437;55.046;38.838;2023-11-21T06:00:39;99412.97;;;-3.91;58.03
68456;BME280;55437;55.046;38.838;2023-11-21T06:03:06;99406.22;;;-3.93;58.36
68456;BME280;55437;55.046;38.838;2023-11-21T06:05:33;99401.81;;;-4.05;58.29
68456;BME280;55437;55.046;38.838;2023-11-21T06:07:59;99397.56;;;-4.09;58.38
68456;BME280;55437;55.046;38.838;2023-11-21T06:10:44;99404.44;;;-4.01;58.52
68456;BME280;55437;55.046;38.838;2023-11-21T06:13:14;99410.19;;;-4.05;58.23
68456;BME280;55437;55.046;38.838;2023-11-21T06:16:00;99409.50;;;-3.96;57.78
68456;BME280;55437;55.046;38.838;2023-11-21T06:18:28;99413.56;;;-4.03;57.85
68456;BME280;55437;55.046;38.838;2023-11-21T06:20:57;99417.97;;;-4.33;58.49
68456;BME280;55437;55.046;38.838;2023-11-21T06:23:23;99408.47;;;-4.49;58.69
68456;BME280;55437;55.046;38.838;2023-11-21T06:25:49;99414.50;;;-4.40;58.82
68456;BME280;55437;55.046;38.838;2023-11-21T06:28:15;99407.66;;;-4.48;58.90
68456;BME280;55437;55.046;38.838;2023-11-21T06:30:43;99396.63;;;-4.55;58.82
68456;BME280;55437;55.046;38.838;2023-11-21T06:33:10;99411.06;;;-4.43;58.73
68456;BME280;55437;55.046;38.838;2023-11-21T06:35:36;99416.47;;;-4.25;58.71
68456;BME280;55437;55.046;38.838;2023-11-21T06:38:02;99412.28;;;-4.26;58.64
68456;BME280;55437;55.046;38.838;2023-11-21T06:40:28;99411.44;;;-4.26;58.33
68456;BME280;55437;55.046;38.838;2023-11-21T06:42:54;99404.19;;;-4.13;58.57
68456;BME280;55437;55.046;38.838;2023-11-21T06:45:20;99403.75;;;-3.92;58.36
68456;BME280;55437;55.046;38.838;2023-11-21T06:47:47;99408.16;;;-3.79;57.81
68456;BME280;55437;55.046;38.838;2023-11-21T06:50:13;99403.22;;;-3.76;57.82
68456;BME280;55437;55.046;38.838;2023-11-21T06:52:39;99419.13;;;-3.75;57.90
68456;BME280;55437;55.046;38.838;2023-11-21T06:55:06;99424.22;;;-3.69;58.03
68456;BME280;55437;55.046;38.838;2023-11-21T06:57:34;99422.75;;;-3.58;57.50
68456;BME280;55437;55.046;38.838;2023-11-21T07:00:00;99426.63;;;-3.75;57.86
68456;BME280;55437;55.046;38.838;2023-11-21T07:02:27;99432.44;;;-3.78;57.79
68456;BME280;55437;55.046;38.838;2023-11-21T07:04:53;99424.88;;;-3.79;57.81
68456;BME280;55437;55.046;38.838;2023-11-21T07:07:20;99420.97;;;-3.65;57.70
68456;BME280;55437;55.046;38.838;2023-11-21T07:09:46;99418.59;;;-3.57;57.53
68456;BME280;55437;55.046;38.838;2023-11-21T07:12:13;99427.56;;;-3.70;57.25
68456;BME280;55437;55.046;38.838;2023-11-21T07:14:39;99420.78;;;-3.76;57.55
68456;BME280;55437;55.046;38.838;2023-11-21T07:17:09;99423.59;;;-3.57;57.19
68456;BME280;55437;55.046;38.838;2023-11-21T07:19:35;99432.09;;;-3.51;57.13
68456;BME280;55437;55.046;38.838;2023-11-21T07:22:01;99429.41;;;-3.60;57.18
68456;BME280;55437;55.046;38.838;2023-11-21T07:24:27;99434.25;;;-3.69;57.00
68456;BME280;55437;55.046;38.838;2023-11-21T07:26:53;99440.84;;;-3.74;57.23
68456;BME280;55437;55.046;38.838;2023-11-21T07:29:23;99443.84;;;-3.93;57.03
68456;BME280;55437;55.046;38.838;2023-11-21T07:31:52;99443.13;;;-3.88;56.88
68456;BME280;55437;55.046;38.838;2023-11-21T07:34:20;99449.44;;;-3.63;56.98
68456;BME280;55437;55.046;38.838;2023-11-21T07:36:46;99463.00;;;-3.53;56.37
68456;BME280;55437;55.046;38.838;2023-11-21T07:39:12;99461.28;;;-3.56;55.90
68456;BME280;55437;55.046;38.838;2023-11-21T07:41:38;99463.97;;;-3.90;55.74
68456;BME280;55437;55.046;38.838;2023-11-21T07:44:10;99477.19;;;-3.97;56.33
68456;BME280;55437;55.046;38.838;2023-11-21T07:46:36;99471.28;;;-4.01;56.53
68456;BME280;55437;55.046;38.838;2023-11-21T07:49:02;99467.88;;;-4.03;56.28
68456;BME280;55437;55.046;38.838;2023-11-21T07:51:28;99474.66;;;-3.99;56.49
68456;BME280;55437;55.046;38.838;2023-11-21T07:53:54;99475.41;;;-4.03;56.21
68456;BME280;55437;55.046;38.838;2023-11-21T07:56:20;99470.53;;;-3.95;56.37
68456;BME280;55437;55.046;38.838;2023-11-21T07:58:46;99461.03;;;-3.68;56.12
68456;BME280;55437;55.046;38.838;2023-11-21T08:01:12;99463.00;;;-3.53;55.89
68456;BME280;55437;55.046;38.838;2023-11-21T08:03:38;99472.03;;;-3.62;55.80
68456;BME280;55437;55.046;38.838;2023-11-21T08:06:04;99473.91;;;-3.50;55.87
68456;BME280;55437;55.046;38.838;2023-11-21T08:08:32;99471.28;;;-3.57;55.89
68456;BME280;55437;55.046;38.838;2023-11-21T08:10:58;99476.50;;;-3.45;55.93
68456;BME280;55437;55.046;38.838;2023-11-21T08:13:26;99463.25;;;-3.40;56.44
68456;BME280;55437;55.046;38.838;2023-11-21T08:15:55;99471.06;;;-3.21;55.91
68456;BME280;55437;55.046;38.838;2023-11-21T08:18:22;99474.66;;;-3.09;55.63
68456;BME280;55437;55.046;38.838;2023-11-21T08:20:48;99468.88;;;-3.05;55.46
68456;BME280;55437;55.046;38.838;2023-11-21T08:23:15;99466.19;;;-3.12;55.84
68456;BME280;55437;55.046;38.838;2023-11-21T08:25:45;99465.34;;;-3.13;55.69
68456;BME280;55437;55.046;38.838;2023-11-21T08:28:11;99464.66;;;-3.06;55.74
68456;BME280;55437;55.046;38.838;2023-11-21T08:30:37;99459.88;;;-2.91;55.97
68456;BME280;55437;55.046;38.838;2023-11-21T08:33:04;99460.69;;;-2.93;55.68
68456;BME280;55437;55.046;38.838;2023-11-21T08:35:30;99454.00;;;-2.93;55.66
68456;BME280;55437;55.046;38.838;2023-11-21T08:37:57;99450.34;;;-3.10;55.20
68456;BME280;55437;55.046;38.838;2023-11-21T08:40:23;99442.72;;;-3.16;55.41
68456;BME280;55437;55.046;38.838;2023-11-21T08:42:49;99427.88;;;-3.04;55.08
68456;BME280;55437;55.046;38.838;2023-11-21T08:45:17;99440.69;;;-2.85;54.82
68456;BME280;55437;55.046;38.838;2023-11-21T08:47:43;99437.34;;;-2.84;54.86
68456;BME280;55437;55.046;38.838;2023-11-21T08:50:10;99437.16;;;-2.97;55.04
68456;BME280;55437;55.046;38.838;2023-11-21T08:52:39;99445.69;;;-2.87;55.19
68456;BME280;55437;55.046;38.838;2023-11-21T08:55:08;99439.69;;;-2.97;55.25
68456;BME280;55437;55.046;38.838;2023-11-21T08:57:38;99446.44;;;-2.93;55.27
68456;BME280;55437;55.046;38.838;2023-11-21T09:00:05;99454.13;;;-2.83;55.38
68456;BME280;55437;55.046;38.838;2023-11-21T09:02:39;99444.75;;;-2.94;55.16
68456;BME280;55437;55.046;38.838;2023-11-21T09:05:11;99445.53;;;-2.98;55.42
68456;BME280;55437;55.046;38.838;2023-11-21T09:07:39;99439.66;;;-2.98;54.50
68456;BME280;55437;55.046;38.838;2023-11-21T09:10:07;99444.94;;;-2.81;54.75
68456;BME280;55437;55.046;38.838;2023-11-21T09:12:35;99439.13;;;-2.79;54.11
68456;BME280;55437;55.046;38.838;2023-11-21T09:15:04;99449.03;;;-2.88;53.85
68456;BME280;55437;55.046;38.838;2023-11-21T09:17:34;99449.03;;;-2.86;53.92
68456;BME280;55437;55.046;38.838;2023-11-21T09:20:01;99448.34;;;-2.79;53.82
68456;BME280;55437;55.046;38.838;2023-11-21T09:22:32;99459.44;;;-2.64;53.48
68456;BME280;55437;55.046;38.838;2023-11-21T09:24:58;99465.84;;;-2.84;53.36
68456;BME280;55437;55.046;38.838;2023-11-21T09:27:24;99465.06;;;-2.80;53.25
68456;BME280;55437;55.046;38.838;2023-11-21T09:29:53;99469.41;;;-2.70;53.23
68456;BME280;55437;55.046;38.838;2023-11-21T09:32:20;99467.81;;;-2.63;53.09
68456;BME280;55437;55.046;38.838;2023-11-21T09:34:50;99477.66;;;-2.77;52.88
68456;BME280;55437;55.046;38.838;2023-11-21T09:37:16;99468.50;;;-2.73;52.65
68456;BME280;55437;55.046;38.838;2023-11-21T09:39:43;99468.53;;;-2.72;52.76
68456;BME280;55437;55.046;38.838;2023-11-21T09:42:15;99467.06;;;-2.59;52.49
68456;BME280;55437;55.046;38.838;2023-11-21T09:44:48;99463.69;;;-2.60;52.01
68456;BME280;55437;55.046;38.838;2023-11-21T09:47:18;99467.94;;;-2.56;52.11
68456;BME280;55437;55.046;38.838;2023-11-21T09:49:47;99472.38;;;-2.94;52.40
68456;BME280;55437;55.046;38.838;2023-11-21T09:52:40;99466.44;;;-2.99;52.54
68456;BME280;55437;55.046;38.838;2023-11-21T09:55:14;99465.75;;;-2.88;52.42
68456;BME280;55437;55.046;38.838;2023-11-21T09:57:44;99471.69;;;-2.85;52.54
68456;BME280;55437;55.046;38.838;2023-11-21T10:00:11;99472.53;;;-2.84;52.56
68456;BME280;55437;55.046;38.838;2023-11-21T10:02:39;99467.59;;;-2.77;52.65
68456;BME280;55437;55.046;38.838;2023-11-21T10:05:06;99470.19;;;-2.72;52.68
68456;BME280;55437;55.046;38.838;2023-11-21T10:07:35;99471.06;;;-2.70;52.47
68456;BME280;55437;55.046;38.838;2023-11-21T10:10:02;99469.47;;;-2.64;52.80
68456;BME280;55437;55.046;38.838;2023-11-21T10:12:32;99476.97;;;-2.68;52.81
68456;BME280;55437;55.046;38.838;2023-11-21T10:14:59;99471.28;;;-2.57;52.81
68456;BME280;55437;55.046;38.838;2023-11-21T10:17:28;99487.13;;;-2.61;52.83
68456;BME280;55437;55.046;38.838;2023-11-21T10:20:03;99479.50;;;-2.65;53.35
68456;BME280;55437;55.046;38.838;2023-11-21T10:22:32;99486.31;;;-2.60;53.18
68456;BME280;55437;55.046;38.838;2023-11-21T10:24:59;99486.47;;;-2.49;53.43
68456;BME280;55437;55.046;38.838;2023-11-21T10:27:26;99486.47;;;-2.49;53.50
68456;BME280;55437;55.046;38.838;2023-11-21T10:29:53;99477.22;;;-2.50;53.48
68456;BME280;55437;55.046;38.838;2023-11-21T10:32:19;99480.66;;;-2.46;53.27
68456;BME280;55437;55.046;38.838;2023-11-21T10:34:55;99483.16;;;-2.46;53.30
68456;BME280;55437;55.046;38.838;2023-11-21T10:37:21;99478.22;;;-2.42;53.21
68456;BME280;55437;55.046;38.838;2023-11-21T10:39:47;99476.69;;;-2.29;52.69
68456;BME280;55437;55.046;38.838;2023-11-21T10:42:13;99477.75;;;-2.12;53.07
68456;BME280;55437;55.046;38.838;2023-11-21T10:44:41;99475.94;;;-2.24;52.71
68456;BME280;55437;55.046;38.838;2023-11-21T10:47:12;99474.31;;;-2.20;52.94
68456;BME280;55437;55.046;38.838;2023-11-21T10:49:39;99482.56;;;-2.27;52.72
68456;BME280;55437;55.046;38.838;2023-11-21T10:52:06;99489.06;;;-2.44;53.08
68456;BME280;55437;55.046;38.838;2023-11-21T10:54:32;99485.63;;;-2.49;53.33
68456;BME280;55437;55.046;38.838;2023-11-21T10:57:04;99490.66;;;-2.49;53.55
68456;BME280;55437;55.046;38.838;2023-11-21T10:59:30;99491.63;;;-2.38;53.37
68456;BME280;55437;55.046;38.838;2023-11-21T11:02:01;99497.59;;;-2.33;53.28
68456;BME280;55437;55.046;38.838;2023-11-21T11:04:30;99499.63;;;-2.64;53.48
68456;BME280;55437;55.046;38.838;2023-11-21T11:07:02;99498.81;;;-2.66;53.65
68456;BME280;55437;55.046;38.838;2023-11-21T11:09:31;99497.06;;;-2.68;54.05
68456;BME280;55437;55.046;38.838;2023-11-21T11:12:01;99485.22;;;-2.75;53.95
68456;BME280;55437;55.046;38.838;2023-11-21T11:14:28;99498.59;;;-2.79;54.06
68456;BME280;55437;55.046;38.838;2023-11-21T11:16:54;99496.19;;;-2.70;54.01
68456;BME280;55437;55.046;38.838;2023-11-21T11:19:25;99494.59;;;-2.67;54.01
68456;BME280;55437;55.046;38.838;2023-11-21T11:24:59;99489.63;;;-2.62;53.58
68456;BME280;55437;55.046;38.838;2023-11-21T11:27:44;99487.16;;;-2.59;53.64
68456;BME280;55437;55.046;38.838;2023-11-21T11:33:07;99491.13;;;-2.73;53.99
68456;BME280;55437;55.046;38.838;2023-11-21T11:36:02;99480.81;;;-2.88;53.91
68456;BME280;55437;55.046;38.838;2023-11-21T11:38:34;99490.00;;;-2.92;53.95
68456;BME280;55437;55.046;38.838;2023-11-21T11:41:03;99491.81;;;-2.83;54.50
68456;BME280;55437;55.046;38.838;2023-11-21T11:43:32;99496.88;;;-2.80;54.83
68456;BME280;55437;55.046;38.838;2023-11-21T11:46:02;99487.56;;;-2.86;54.60
68456;BME280;55437;55.046;38.838;2023-11-21T11:48:37;99496.09;;;-2.76;54.66
68456;BME280;55437;55.046;38.838;2023-11-21T11:51:10;99503.00;;;-2.63;54.47
68456;BME280;55437;55.046;38.838;2023-11-21T11:53:39;99509.03;;;-2.52;54.36
68456;BME280;55437;55.046;38.838;2023-11-21T11:56:26;99507.41;;;-2.48;54.06
68456;BME280;55437;55.046;38.838;2023-11-21T11:58:57;99512.31;;;-2.58;54.45
68456;BME280;55437;55.046;38.838;2023-11-21T12:01:25;99520.78;;;-2.51;54.65
68456;BME280;55437;55.046;38.838;2023-11-21T12:06:44;99525.09;;;-2.44;53.89
68456;BME280;55437;55.046;38.838;2023-11-21T12:09:20;99526.59;;;-2.54;54.26
68456;BME280;55437;55.046;38.838;2023-11-21T12:11:48;99528.91;;;-2.67;54.30
68456;BME280;55437;55.046;38.838;2023-11-21T12:14:15;99534.53;;;-2.82;54.13
68456;BME280;55437;55.046;38.838;2023-11-21T12:16:42;99531.25;;;-2.79;54.11
68456;BME280;55437;55.046;38.838;2023-11-21T12:19:10;99535.50;;;-2.74;54.26
68456;BME280;55437;55.046;38.838;2023-11-21T12:21:36;99540.53;;;-2.74;53.74
68456;BME280;55437;55.046;38.838;2023-11-21T12:24:03;99543.88;;;-2.73;53.69
68456;BME280;55437;55.046;38.838;2023-11-21T12:26:29;99536.97;;;-2.86;53.76
68456;BME280;55437;55.046;38.838;2023-11-21T12:28:56;99537.88;;;-2.83;53.99
68456;BME280;55437;55.046;38.838;2023-11-21T12:31:22;99538.09;;;-2.69;53.82
68456;BME280;55437;55.046;38.838;2023-11-21T12:33:49;99544.88;;;-2.64;53.74
68456;BME280;55437;55.046;38.838;2023-11-21T12:36:16;99548.88;;;-2.75;53.41
68456;BME280;55437;55.046;38.838;2023-11-21T12:38:42;99544.69;;;-2.74;54.21
68456;BME280;55437;55.046;38.838;2023-11-21T12:41:11;99548.78;;;-2.81;54.01
68456;BME280;55437;55.046;38.838;2023-11-21T12:43:38;99550.09;;;-3.01;54.05
68456;BME280;55437;55.046;38.838;2023-11-21T12:46:08;99550.91;;;-3.04;54.08
68456;BME280;55437;55.046;38.838;2023-11-21T12:48:39;99550.94;;;-3.02;54.23
68456;BME280;55437;55.046;38.838;2023-11-21T12:51:08;99546.66;;;-3.08;54.30
68456;BME280;55437;55.046;38.838;2023-11-21T12:53:37;99552.47;;;-3.10;54.55
68456;BME280;55437;55.046;38.838;2023-11-21T12:56:11;99554.16;;;-3.09;54.48
68456;BME280;55437;55.046;38.838;2023-11-21T12:58:39;99564.19;;;-3.09;54.02
68456;BME280;55437;55.046;38.838;2023-11-21T13:01:08;99563.19;;;-3.19;54.62
68456;BME280;55437;55.046;38.838;2023-11-21T13:03:40;99567.50;;;-3.12;54.61